Tenacious — WDJ3009 — position and weather

sailwx.info

Track history (hours):
 
Tides and Currents Weather Stations Pressure Air Temp Water Temp Dewpoint Dewpoint Depression Visibility Wind Speed Wind Dir Waves Ship Positions

Tenacious

Owner: McCampbell, Peter, Littleton, CO. More information available from US FCC via Universal Licensing System and Coast Guard Vessel Documentation Center.

Last reported at 2018-Mar-09 20:11 UTC. Time now 2018-May-26 03:52 UTC.
Position N 32°40' W 117°15'.
Warning: this ship's position is months out of date.

Length 17 m; draft 2 m.

Type: Pleasure craft. MMSI: 367763920.

Date/timePositionNaut miles runAvg speedWind from/ knotsBaromVisibWave heightAir tempDewpointWater temp
2018-Mar-09 20:11N 32°40' W 117°15'2 8.8
2018-Mar-09 20:00N 32°41' W 117°16'5 8.0
2018-Mar-09 19:23N 32°46' W 117°19'3 8.0
2018-Mar-09 19:00N 32°48' W 117°20'4 8.1
2018-Mar-09 18:30N 32°52' W 117°22'4 8.0
2018-Mar-09 18:00N 32°56' W 117°24'4 8.1
2018-Mar-09 17:30N 32°60' W 117°26'4 8.4
2018-Mar-09 17:00N 33°03' W 117°28'4 8.5
2018-Mar-09 16:30N 33°07' W 117°31'5 8.8
2018-Mar-09 15:56N 33°11' W 117°33'4 8.8
2018-Mar-09 15:30N 33°15' W 117°35'4 8.7
2018-Mar-09 15:00N 33°19' W 117°37'9 3.5
2018-Mar-09 12:21N 33°28' W 117°42'0 0.0
2018-Mar-09 09:16N 33°28' W 117°42'0 0.0
2018-Mar-09 08:57N 33°28' W 117°42'0 0.0
2018-Mar-09 08:30N 33°28' W 117°42'0 0.0
2018-Mar-09 07:39N 33°28' W 117°42'0 0.0
2018-Mar-09 07:30N 33°28' W 117°42'0 0.0
2018-Mar-09 06:57N 33°28' W 117°42'0 0.0
2018-Mar-09 06:30N 33°28' W 117°42'0 0.0
2018-Mar-09 06:00N 33°28' W 117°42'0 0.0
2018-Mar-09 05:30N 33°28' W 117°42'0 0.0
2018-Mar-09 05:00N 33°28' W 117°42'0 0.0
2018-Mar-09 04:30N 33°28' W 117°42'0 0.0
2018-Mar-09 03:58N 33°28' W 117°42'0 0.0
2018-Mar-09 03:30N 33°28' W 117°42'0 0.0
2018-Mar-09 03:00N 33°28' W 117°42'0 0.0
2018-Mar-09 02:30N 33°28' W 117°42'0 0.0
2018-Mar-09 02:00N 33°28' W 117°42'0 0.0
2018-Mar-09 01:30N 33°28' W 117°42'0 0.0
2018-Mar-09 01:00N 33°28' W 117°42'0 0.0
2018-Mar-09 00:30N 33°28' W 117°42'0 0.0
2018-Mar-08 23:59N 33°28' W 117°42'0 0.0
2018-Mar-08 23:29N 33°28' W 117°42'0 0.0
2018-Mar-08 23:00N 33°28' W 117°42'0 0.0
2018-Mar-08 22:30N 33°28' W 117°42'0 0.0
2018-Mar-08 22:00N 33°28' W 117°42'0 0.0
2018-Mar-08 21:24N 33°28' W 117°42'0 0.0
2018-Mar-08 21:00N 33°28' W 117°42'0 0.0
2018-Mar-08 20:30N 33°28' W 117°42'0 0.0
2018-Mar-07 21:30N 33°28' W 117°42'0 0.0
2018-Mar-07 20:59N 33°28' W 117°42'0 0.0
2018-Mar-07 20:20N 33°28' W 117°42'0 0.0
2018-Mar-07 19:59N 33°28' W 117°42'0 0.0
2018-Mar-07 19:30N 33°28' W 117°42'0 0.0
2018-Mar-07 19:00N 33°28' W 117°42'0 0.0
2018-Mar-07 18:30N 33°28' W 117°42'0 0.0
2018-Mar-07 18:00N 33°28' W 117°42'0 0.0
2018-Mar-07 17:30N 33°28' W 117°42'0 0.0
2018-Mar-07 17:00N 33°28' W 117°42'0 0.0
2018-Mar-07 16:30N 33°28' W 117°42'0 0.0
2018-Mar-07 16:00N 33°28' W 117°42'0 0.0
2018-Mar-07 15:23N 33°28' W 117°42'0 0.0
2018-Mar-07 15:00N 33°28' W 117°42'0 0.0
2018-Mar-07 14:30N 33°28' W 117°42'0 0.0
2018-Mar-07 14:00N 33°28' W 117°42'0 0.0
2018-Mar-07 12:39N 33°28' W 117°42'0 0.0
2018-Mar-07 12:29N 33°28' W 117°42'0 0.0
2018-Mar-07 11:33N 33°28' W 117°42'0 0.0
2018-Mar-07 11:28N 33°28' W 117°42'0 0.0
2018-Mar-07 11:00N 33°28' W 117°42'0 0.0
2018-Mar-07 10:30N 33°28' W 117°42'0 0.0
2018-Mar-07 05:43N 33°28' W 117°42'0 0.0
2018-Mar-07 05:25N 33°28' W 117°42'0 0.0
2018-Mar-07 05:00N 33°28' W 117°42'0 0.0
2018-Mar-07 04:30N 33°28' W 117°42'0 0.0
2018-Mar-07 03:59N 33°28' W 117°42'0 0.0
2018-Mar-07 03:30N 33°28' W 117°42'0 0.0
2018-Mar-07 03:00N 33°28' W 117°42'0 0.0
2018-Mar-07 02:30N 33°28' W 117°42'0 0.0
2018-Mar-07 02:00N 33°28' W 117°42'0 0.0
2018-Mar-07 01:30N 33°28' W 117°42'0 0.0
2018-Mar-07 00:59N 33°28' W 117°42'0 0.0
2018-Mar-07 00:30N 33°28' W 117°42'0 0.0
2018-Mar-07 00:00N 33°28' W 117°42'0 0.0
2018-Mar-06 23:30N 33°28' W 117°42'0 0.0
2018-Mar-06 22:20N 33°28' W 117°42'0 0.0
2018-Mar-06 22:00N 33°28' W 117°42'0 0.0
2018-Mar-06 21:30N 33°28' W 117°42'0 0.0
2018-Mar-06 21:00N 33°28' W 117°42'0 0.0
2018-Mar-06 20:30N 33°28' W 117°42'0 0.0
2018-Mar-06 20:00N 33°28' W 117°42'0 0.0
2018-Mar-06 19:30N 33°28' W 117°42'0 0.0
2018-Mar-06 18:59N 33°28' W 117°42'0 0.0
2018-Mar-06 18:30N 33°28' W 117°42'0 0.0
2018-Mar-06 18:00N 33°28' W 117°42'0 0.0
2018-Mar-06 17:30N 33°28' W 117°42'0 0.0
2018-Mar-06 17:00N 33°28' W 117°42'0 0.0
2018-Mar-06 16:27N 33°28' W 117°42'0 0.0
2018-Mar-06 15:53N 33°28' W 117°42'0 0.0
2018-Mar-06 15:28N 33°28' W 117°42'0 0.0
2018-Mar-06 13:15N 33°28' W 117°42'0 0.0
2018-Mar-06 12:55N 33°28' W 117°42'0 0.0
2018-Mar-06 12:30N 33°28' W 117°42'0 0.0
2018-Mar-06 11:58N 33°28' W 117°42'0 0.0
2018-Mar-06 05:04N 33°28' W 117°42'0 0.0
2018-Mar-06 04:55N 33°28' W 117°42'0 0.0
2018-Mar-06 02:21N 33°28' W 117°42'0 0.0
2018-Mar-06 01:57N 33°28' W 117°42'0 0.0
2018-Mar-06 01:30N 33°28' W 117°42'0 0.0
2018-Mar-06 00:59N 33°28' W 117°42'0 0.0
2018-Mar-06 00:27N 33°28' W 117°42'0 0.0
2018-Mar-06 00:00N 33°28' W 117°42'0 0.0
2018-Mar-05 23:30N 33°28' W 117°42'0 0.0
2018-Mar-05 23:00N 33°28' W 117°42'0 0.0
2018-Mar-05 22:30N 33°28' W 117°42'0 0.0
2018-Mar-05 22:00N 33°28' W 117°42'0 0.0
2018-Mar-05 21:30N 33°28' W 117°42'0 0.0
2018-Mar-05 21:00N 33°28' W 117°42'0 0.0
2018-Mar-05 20:30N 33°28' W 117°42'0 0.0
2018-Mar-05 19:54N 33°28' W 117°42'0 0.0
2018-Mar-05 19:30N 33°28' W 117°42'0 0.0
2018-Mar-05 19:00N 33°28' W 117°42'0 0.0
2018-Mar-05 13:38N 33°28' W 117°42'0 0.0
2018-Mar-05 13:25N 33°28' W 117°42'0 0.0
2018-Mar-05 12:58N 33°28' W 117°42'0 0.0
2018-Mar-05 12:28N 33°28' W 117°42'0 0.0
2018-Mar-05 12:00N 33°28' W 117°42'0 0.0
2018-Mar-05 11:29N 33°28' W 117°42'0 0.0
2018-Mar-05 10:57N 33°28' W 117°42'0 0.0
2018-Mar-05 10:30N 33°28' W 117°42'0 0.0
2018-Mar-05 10:00N 33°28' W 117°42'0 0.0
2018-Mar-05 09:30N 33°28' W 117°42'0 0.0
2018-Mar-05 08:59N 33°28' W 117°42'0 0.0
2018-Mar-05 08:30N 33°28' W 117°42'0 0.0
2018-Mar-04 14:37N 33°28' W 117°42'0 0.0
2018-Mar-04 14:12N 33°28' W 117°42'0 0.0
2018-Mar-04 13:52N 33°28' W 117°42'0 0.0
2018-Mar-04 13:19N 33°28' W 117°42'0 0.0
2018-Mar-04 11:31N 33°28' W 117°42'0 0.0
2018-Mar-04 11:16N 33°28' W 117°42'0 0.0
2018-Mar-04 06:22N 33°28' W 117°42'0 0.0
2018-Mar-04 05:55N 33°28' W 117°42'0 0.0
2018-Mar-04 04:03N 33°28' W 117°42'0 0.0
2018-Mar-04 03:55N 33°28' W 117°42'0 0.0
2018-Mar-04 03:18N 33°28' W 117°42'0 0.0
2018-Mar-04 03:00N 33°28' W 117°42'0 0.0
2018-Mar-04 02:30N 33°28' W 117°42'0 0.0
2018-Mar-04 02:00N 33°28' W 117°42'0 0.0
2018-Mar-04 01:29N 33°28' W 117°42'  
Track history (hours):
 
Tides and Currents Weather Stations Pressure Air Temp Water Temp Dewpoint Dewpoint Depression Visibility Wind Speed Wind Dir Waves Ship Positions

Tenacious

Owner: McCampbell, Peter, Littleton, CO. More information available from US FCC via Universal Licensing System and Coast Guard Vessel Documentation Center.

Last reported at 2018-Mar-09 20:11 UTC. Time now 2018-May-26 03:52 UTC.
Position N 32°40' W 117°15'.
Warning: this ship's position is months out of date.

Length 17 m; draft 2 m.

Type: Pleasure craft. MMSI: 367763920.

Date/timePositionNaut miles runAvg speedWind from/ knotsBaromVisibWave heightAir tempDewpointWater temp
2018-Mar-09 20:11N 32°40' W 117°15'2 8.8
2018-Mar-09 20:00N 32°41' W 117°16'5 8.0
2018-Mar-09 19:23N 32°46' W 117°19'3 8.0
2018-Mar-09 19:00N 32°48' W 117°20'4 8.1
2018-Mar-09 18:30N 32°52' W 117°22'4 8.0
2018-Mar-09 18:00N 32°56' W 117°24'4 8.1
2018-Mar-09 17:30N 32°60' W 117°26'4 8.4
2018-Mar-09 17:00N 33°03' W 117°28'4 8.5
2018-Mar-09 16:30N 33°07' W 117°31'5 8.8
2018-Mar-09 15:56N 33°11' W 117°33'4 8.8
2018-Mar-09 15:30N 33°15' W 117°35'4 8.7
2018-Mar-09 15:00N 33°19' W 117°37'9 3.5
2018-Mar-09 12:21N 33°28' W 117°42'0 0.0
2018-Mar-09 09:16N 33°28' W 117°42'0 0.0
2018-Mar-09 08:57N 33°28' W 117°42'0 0.0
2018-Mar-09 08:30N 33°28' W 117°42'0 0.0
2018-Mar-09 07:39N 33°28' W 117°42'0 0.0
2018-Mar-09 07:30N 33°28' W 117°42'0 0.0
2018-Mar-09 06:57N 33°28' W 117°42'0 0.0
2018-Mar-09 06:30N 33°28' W 117°42'0 0.0
2018-Mar-09 06:00N 33°28' W 117°42'0 0.0
2018-Mar-09 05:30N 33°28' W 117°42'0 0.0
2018-Mar-09 05:00N 33°28' W 117°42'0 0.0
2018-Mar-09 04:30N 33°28' W 117°42'0 0.0
2018-Mar-09 03:58N 33°28' W 117°42'0 0.0
2018-Mar-09 03:30N 33°28' W 117°42'0 0.0
2018-Mar-09 03:00N 33°28' W 117°42'0 0.0
2018-Mar-09 02:30N 33°28' W 117°42'0 0.0
2018-Mar-09 02:00N 33°28' W 117°42'0 0.0
2018-Mar-09 01:30N 33°28' W 117°42'0 0.0
2018-Mar-09 01:00N 33°28' W 117°42'0 0.0
2018-Mar-09 00:30N 33°28' W 117°42'0 0.0
2018-Mar-08 23:59N 33°28' W 117°42'0 0.0
2018-Mar-08 23:29N 33°28' W 117°42'0 0.0
2018-Mar-08 23:00N 33°28' W 117°42'0 0.0
2018-Mar-08 22:30N 33°28' W 117°42'0 0.0
2018-Mar-08 22:00N 33°28' W 117°42'0 0.0
2018-Mar-08 21:24N 33°28' W 117°42'0 0.0
2018-Mar-08 21:00N 33°28' W 117°42'0 0.0
2018-Mar-08 20:30N 33°28' W 117°42'0 0.0
2018-Mar-07 21:30N 33°28' W 117°42'0 0.0
2018-Mar-07 20:59N 33°28' W 117°42'0 0.0
2018-Mar-07 20:20N 33°28' W 117°42'0 0.0
2018-Mar-07 19:59N 33°28' W 117°42'0 0.0
2018-Mar-07 19:30N 33°28' W 117°42'0 0.0
2018-Mar-07 19:00N 33°28' W 117°42'0 0.0
2018-Mar-07 18:30N 33°28' W 117°42'0 0.0
2018-Mar-07 18:00N 33°28' W 117°42'0 0.0
2018-Mar-07 17:30N 33°28' W 117°42'0 0.0
2018-Mar-07 17:00N 33°28' W 117°42'0 0.0
2018-Mar-07 16:30N 33°28' W 117°42'0 0.0
2018-Mar-07 16:00N 33°28' W 117°42'0 0.0
2018-Mar-07 15:23N 33°28' W 117°42'0 0.0
2018-Mar-07 15:00N 33°28' W 117°42'0 0.0
2018-Mar-07 14:30N 33°28' W 117°42'0 0.0
2018-Mar-07 14:00N 33°28' W 117°42'0 0.0
2018-Mar-07 12:39N 33°28' W 117°42'0 0.0
2018-Mar-07 12:29N 33°28' W 117°42'0 0.0
2018-Mar-07 11:33N 33°28' W 117°42'0 0.0
2018-Mar-07 11:28N 33°28' W 117°42'0 0.0
2018-Mar-07 11:00N 33°28' W 117°42'0 0.0
2018-Mar-07 10:30N 33°28' W 117°42'0 0.0
2018-Mar-07 05:43N 33°28' W 117°42'0 0.0
2018-Mar-07 05:25N 33°28' W 117°42'0 0.0
2018-Mar-07 05:00N 33°28' W 117°42'0 0.0
2018-Mar-07 04:30N 33°28' W 117°42'0 0.0
2018-Mar-07 03:59N 33°28' W 117°42'0 0.0
2018-Mar-07 03:30N 33°28' W 117°42'0 0.0
2018-Mar-07 03:00N 33°28' W 117°42'0 0.0
2018-Mar-07 02:30N 33°28' W 117°42'0 0.0
2018-Mar-07 02:00N 33°28' W 117°42'0 0.0
2018-Mar-07 01:30N 33°28' W 117°42'0 0.0
2018-Mar-07 00:59N 33°28' W 117°42'0 0.0
2018-Mar-07 00:30N 33°28' W 117°42'0 0.0
2018-Mar-07 00:00N 33°28' W 117°42'0 0.0
2018-Mar-06 23:30N 33°28' W 117°42'0 0.0
2018-Mar-06 22:20N 33°28' W 117°42'0 0.0
2018-Mar-06 22:00N 33°28' W 117°42'0 0.0
2018-Mar-06 21:30N 33°28' W 117°42'0 0.0
2018-Mar-06 21:00N 33°28' W 117°42'0 0.0
2018-Mar-06 20:30N 33°28' W 117°42'0 0.0
2018-Mar-06 20:00N 33°28' W 117°42'0 0.0
2018-Mar-06 19:30N 33°28' W 117°42'0 0.0
2018-Mar-06 18:59N 33°28' W 117°42'0 0.0
2018-Mar-06 18:30N 33°28' W 117°42'0 0.0
2018-Mar-06 18:00N 33°28' W 117°42'0 0.0
2018-Mar-06 17:30N 33°28' W 117°42'0 0.0
2018-Mar-06 17:00N 33°28' W 117°42'0 0.0
2018-Mar-06 16:27N 33°28' W 117°42'0 0.0
2018-Mar-06 15:53N 33°28' W 117°42'0 0.0
2018-Mar-06 15:28N 33°28' W 117°42'0 0.0
2018-Mar-06 13:15N 33°28' W 117°42'0 0.0
2018-Mar-06 12:55N 33°28' W 117°42'0 0.0
2018-Mar-06 12:30N 33°28' W 117°42'0 0.0
2018-Mar-06 11:58N 33°28' W 117°42'0 0.0
2018-Mar-06 05:04N 33°28' W 117°42'0 0.0
2018-Mar-06 04:55N 33°28' W 117°42'0 0.0
2018-Mar-06 02:21N 33°28' W 117°42'0 0.0
2018-Mar-06 01:57N 33°28' W 117°42'0 0.0
2018-Mar-06 01:30N 33°28' W 117°42'0 0.0
2018-Mar-06 00:59N 33°28' W 117°42'0 0.0
2018-Mar-06 00:27N 33°28' W 117°42'0 0.0
2018-Mar-06 00:00N 33°28' W 117°42'0 0.0
2018-Mar-05 23:30N 33°28' W 117°42'0 0.0
2018-Mar-05 23:00N 33°28' W 117°42'0 0.0
2018-Mar-05 22:30N 33°28' W 117°42'0 0.0
2018-Mar-05 22:00N 33°28' W 117°42'0 0.0
2018-Mar-05 21:30N 33°28' W 117°42'0 0.0
2018-Mar-05 21:00N 33°28' W 117°42'0 0.0
2018-Mar-05 20:30N 33°28' W 117°42'0 0.0
2018-Mar-05 19:54N 33°28' W 117°42'0 0.0
2018-Mar-05 19:30N 33°28' W 117°42'0 0.0
2018-Mar-05 19:00N 33°28' W 117°42'0 0.0
2018-Mar-05 13:38N 33°28' W 117°42'0 0.0
2018-Mar-05 13:25N 33°28' W 117°42'0 0.0
2018-Mar-05 12:58N 33°28' W 117°42'0 0.0
2018-Mar-05 12:28N 33°28' W 117°42'0 0.0
2018-Mar-05 12:00N 33°28' W 117°42'0 0.0
2018-Mar-05 11:29N 33°28' W 117°42'0 0.0
2018-Mar-05 10:57N 33°28' W 117°42'0 0.0
2018-Mar-05 10:30N 33°28' W 117°42'0 0.0
2018-Mar-05 10:00N 33°28' W 117°42'0 0.0
2018-Mar-05 09:30N 33°28' W 117°42'0 0.0
2018-Mar-05 08:59N 33°28' W 117°42'0 0.0
2018-Mar-05 08:30N 33°28' W 117°42'0 0.0
2018-Mar-04 14:37N 33°28' W 117°42'0 0.0
2018-Mar-04 14:12N 33°28' W 117°42'0 0.0
2018-Mar-04 13:52N 33°28' W 117°42'0 0.0
2018-Mar-04 13:19N 33°28' W 117°42'0 0.0
2018-Mar-04 11:31N 33°28' W 117°42'0 0.0
2018-Mar-04 11:16N 33°28' W 117°42'0 0.0
2018-Mar-04 06:22N 33°28' W 117°42'0 0.0
2018-Mar-04 05:55N 33°28' W 117°42'0 0.0
2018-Mar-04 04:03N 33°28' W 117°42'0 0.0
2018-Mar-04 03:55N 33°28' W 117°42'0 0.0
2018-Mar-04 03:18N 33°28' W 117°42'0 0.0
2018-Mar-04 03:00N 33°28' W 117°42'0 0.0
2018-Mar-04 02:30N 33°28' W 117°42'0 0.0
2018-Mar-04 02:00N 33°28' W 117°42'0 0.0
2018-Mar-04 01:29N 33°28' W 117°42'  

Dump ship's entire track history